sensor_id;sensor_type;location;lat;lon;timestamp;P1;durP1;ratioP1;P2;durP2;ratioP2
13685;SDS011;6915;48.296;8.874;2023-04-21T00:00:02;1.90;;;1.80;;
13685;SDS011;6915;48.296;8.874;2023-04-21T00:02:34;1.83;;;1.73;;
13685;SDS011;6915;48.296;8.874;2023-04-21T00:05:04;4.43;;;1.93;;
13685;SDS011;6915;48.296;8.874;2023-04-21T00:07:34;2.30;;;2.10;;
13685;SDS011;6915;48.296;8.874;2023-04-21T00:10:05;2.30;;;2.10;;
13685;SDS011;6915;48.296;8.874;2023-04-21T00:12:36;2.20;;;2.00;;
13685;SDS011;6915;48.296;8.874;2023-04-21T00:15:05;2.27;;;1.73;;
13685;SDS011;6915;48.296;8.874;2023-04-21T00:17:35;1.50;;;1.40;;
13685;SDS011;6915;48.296;8.874;2023-04-21T00:20:04;1.73;;;1.63;;
13685;SDS011;6915;48.296;8.874;2023-04-21T00:22:33;1.97;;;1.87;;
13685;SDS011;6915;48.296;8.874;2023-04-21T00:25:01;1.70;;;1.60;;
13685;SDS011;6915;48.296;8.874;2023-04-21T00:27:32;2.83;;;1.73;;
13685;SDS011;6915;48.296;8.874;2023-04-21T00:30:01;2.57;;;1.97;;
13685;SDS011;6915;48.296;8.874;2023-04-21T00:32:31;2.03;;;1.80;;
13685;SDS011;6915;48.296;8.874;2023-04-21T00:34:59;2.33;;;2.13;;
13685;SDS011;6915;48.296;8.874;2023-04-21T00:37:28;2.30;;;1.77;;
13685;SDS011;6915;48.296;8.874;2023-04-21T00:39:57;3.10;;;1.63;;
13685;SDS011;6915;48.296;8.874;2023-04-21T00:42:26;2.00;;;1.90;;
13685;SDS011;6915;48.296;8.874;2023-04-21T00:44:57;1.63;;;1.43;;
13685;SDS011;6915;48.296;8.874;2023-04-21T00:47:25;2.20;;;1.90;;
13685;SDS011;6915;48.296;8.874;2023-04-21T00:49:54;1.80;;;1.50;;
13685;SDS011;6915;48.296;8.874;2023-04-21T00:52:23;2.70;;;1.83;;
13685;SDS011;6915;48.296;8.874;2023-04-21T00:54:52;2.07;;;1.60;;
13685;SDS011;6915;48.296;8.874;2023-04-21T00:57:21;4.27;;;1.67;;
13685;SDS011;6915;48.296;8.874;2023-04-21T00:59:50;2.00;;;1.90;;
13685;SDS011;6915;48.296;8.874;2023-04-21T01:02:20;2.63;;;1.67;;
13685;SDS011;6915;48.296;8.874;2023-04-21T01:04:50;1.80;;;1.70;;
13685;SDS011;6915;48.296;8.874;2023-04-21T01:07:18;1.90;;;1.73;;
13685;SDS011;6915;48.296;8.874;2023-04-21T01:09:49;2.40;;;1.87;;
13685;SDS011;6915;48.296;8.874;2023-04-21T01:12:18;2.37;;;1.80;;
13685;SDS011;6915;48.296;8.874;2023-04-21T01:14:47;2.60;;;2.00;;
13685;SDS011;6915;48.296;8.874;2023-04-21T01:17:16;2.20;;;1.90;;
13685;SDS011;6915;48.296;8.874;2023-04-21T01:19:48;2.37;;;2.20;;
13685;SDS011;6915;48.296;8.874;2023-04-21T01:22:20;2.80;;;2.60;;
13685;SDS011;6915;48.296;8.874;2023-04-21T01:24:52;2.27;;;2.07;;
13685;SDS011;6915;48.296;8.874;2023-04-21T01:27:20;6.23;;;2.30;;
13685;SDS011;6915;48.296;8.874;2023-04-21T01:29:51;3.13;;;2.50;;
13685;SDS011;6915;48.296;8.874;2023-04-21T01:32:21;2.10;;;2.00;;
13685;SDS011;6915;48.296;8.874;2023-04-21T01:34:51;2.20;;;2.10;;
13685;SDS011;6915;48.296;8.874;2023-04-21T01:37:22;2.57;;;2.13;;
13685;SDS011;6915;48.296;8.874;2023-04-21T01:39:53;3.90;;;2.20;;
13685;SDS011;6915;48.296;8.874;2023-04-21T01:42:24;2.40;;;2.20;;
13685;SDS011;6915;48.296;8.874;2023-04-21T01:44:54;2.50;;;2.30;;
13685;SDS011;6915;48.296;8.874;2023-04-21T01:47:23;2.60;;;2.40;;
13685;SDS011;6915;48.296;8.874;2023-04-21T01:49:52;2.40;;;2.20;;
13685;SDS011;6915;48.296;8.874;2023-04-21T01:52:22;4.10;;;3.30;;
13685;SDS011;6915;48.296;8.874;2023-04-21T01:54:51;3.57;;;3.00;;
13685;SDS011;6915;48.296;8.874;2023-04-21T01:57:20;2.50;;;2.30;;
13685;SDS011;6915;48.296;8.874;2023-04-21T01:59:48;3.30;;;2.30;;
13685;SDS011;6915;48.296;8.874;2023-04-21T02:02:17;2.53;;;2.33;;
13685;SDS011;6915;48.296;8.874;2023-04-21T02:04:45;4.23;;;2.60;;
13685;SDS011;6915;48.296;8.874;2023-04-21T02:07:14;2.73;;;2.30;;
13685;SDS011;6915;48.296;8.874;2023-04-21T02:09:44;2.50;;;2.30;;
13685;SDS011;6915;48.296;8.874;2023-04-21T02:12:13;2.97;;;2.40;;
13685;SDS011;6915;48.296;8.874;2023-04-21T02:14:41;3.83;;;2.07;;
13685;SDS011;6915;48.296;8.874;2023-04-21T02:17:14;4.47;;;2.67;;
13685;SDS011;6915;48.296;8.874;2023-04-21T02:19:42;2.27;;;2.10;;
13685;SDS011;6915;48.296;8.874;2023-04-21T02:22:11;2.80;;;2.23;;
13685;SDS011;6915;48.296;8.874;2023-04-21T02:24:40;5.43;;;2.60;;
13685;SDS011;6915;48.296;8.874;2023-04-21T02:27:10;4.13;;;3.03;;
13685;SDS011;6915;48.296;8.874;2023-04-21T02:29:39;4.37;;;3.30;;
13685;SDS011;6915;48.296;8.874;2023-04-21T02:32:08;3.10;;;2.80;;
13685;SDS011;6915;48.296;8.874;2023-04-21T02:34:36;3.37;;;2.80;;
13685;SDS011;6915;48.296;8.874;2023-04-21T02:37:06;5.37;;;3.60;;
13685;SDS011;6915;48.296;8.874;2023-04-21T02:39:34;3.53;;;2.80;;
13685;SDS011;6915;48.296;8.874;2023-04-21T02:42:03;2.90;;;2.50;;
13685;SDS011;6915;48.296;8.874;2023-04-21T02:44:33;3.27;;;2.97;;
13685;SDS011;6915;48.296;8.874;2023-04-21T02:47:04;3.27;;;2.97;;
13685;SDS011;6915;48.296;8.874;2023-04-21T02:49:32;3.13;;;2.83;;
13685;SDS011;6915;48.296;8.874;2023-04-21T02:52:04;2.70;;;2.47;;
13685;SDS011;6915;48.296;8.874;2023-04-21T02:54:33;3.23;;;2.93;;
13685;SDS011;6915;48.296;8.874;2023-04-21T02:57:02;3.37;;;3.10;;
13685;SDS011;6915;48.296;8.874;2023-04-21T02:59:30;3.57;;;3.23;;
13685;SDS011;6915;48.296;8.874;2023-04-21T03:02:00;3.80;;;3.30;;
13685;SDS011;6915;48.296;8.874;2023-04-21T03:04:29;5.77;;;3.70;;
13685;SDS011;6915;48.296;8.874;2023-04-21T03:06:58;5.17;;;3.23;;
13685;SDS011;6915;48.296;8.874;2023-04-21T03:09:26;3.90;;;3.43;;
13685;SDS011;6915;48.296;8.874;2023-04-21T03:11:58;3.33;;;3.03;;
13685;SDS011;6915;48.296;8.874;2023-04-21T03:14:27;3.13;;;2.83;;
13685;SDS011;6915;48.296;8.874;2023-04-21T03:16:56;2.80;;;2.60;;
13685;SDS011;6915;48.296;8.874;2023-04-21T03:19:26;4.07;;;3.10;;
13685;SDS011;6915;48.296;8.874;2023-04-21T03:21:55;3.80;;;3.50;;
13685;SDS011;6915;48.296;8.874;2023-04-21T03:24:27;4.70;;;3.00;;
13685;SDS011;6915;48.296;8.874;2023-04-21T03:26:58;5.10;;;3.40;;
13685;SDS011;6915;48.296;8.874;2023-04-21T03:29:27;4.53;;;3.20;;
13685;SDS011;6915;48.296;8.874;2023-04-21T03:31:56;4.83;;;4.23;;
13685;SDS011;6915;48.296;8.874;2023-04-21T03:36:57;7.47;;;4.80;;
13685;SDS011;6915;48.296;8.874;2023-04-21T03:39:25;7.67;;;4.97;;
13685;SDS011;6915;48.296;8.874;2023-04-21T03:41:54;4.50;;;3.83;;
13685;SDS011;6915;48.296;8.874;2023-04-21T03:44:23;4.10;;;3.70;;
13685;SDS011;6915;48.296;8.874;2023-04-21T03:46:53;3.33;;;3.03;;
13685;SDS011;6915;48.296;8.874;2023-04-21T03:49:21;4.23;;;3.83;;
13685;SDS011;6915;48.296;8.874;2023-04-21T03:51:52;7.63;;;3.47;;
13685;SDS011;6915;48.296;8.874;2023-04-21T03:54:20;4.17;;;3.67;;
13685;SDS011;6915;48.296;8.874;2023-04-21T03:56:49;4.43;;;3.60;;
13685;SDS011;6915;48.296;8.874;2023-04-21T03:59:18;4.77;;;3.50;;
13685;SDS011;6915;48.296;8.874;2023-04-21T04:01:47;3.93;;;3.53;;
13685;SDS011;6915;48.296;8.874;2023-04-21T04:04:15;4.50;;;3.47;;
13685;SDS011;6915;48.296;8.874;2023-04-21T04:06:44;4.37;;;3.90;;
13685;SDS011;6915;48.296;8.874;2023-04-21T04:09:25;5.50;;;3.93;;
13685;SDS011;6915;48.296;8.874;2023-04-21T04:11:54;6.43;;;4.90;;
13685;SDS011;6915;48.296;8.874;2023-04-21T04:14:22;9.63;;;7.10;;
13685;SDS011;6915;48.296;8.874;2023-04-21T04:16:51;9.23;;;6.30;;
13685;SDS011;6915;48.296;8.874;2023-04-21T04:19:19;7.33;;;5.03;;
13685;SDS011;6915;48.296;8.874;2023-04-21T04:21:48;5.87;;;4.53;;
13685;SDS011;6915;48.296;8.874;2023-04-21T04:24:16;9.57;;;4.80;;
13685;SDS011;6915;48.296;8.874;2023-04-21T04:26:47;8.53;;;6.20;;
13685;SDS011;6915;48.296;8.874;2023-04-21T04:29:17;11.13;;;7.10;;
13685;SDS011;6915;48.296;8.874;2023-04-21T04:31:47;9.30;;;6.60;;
13685;SDS011;6915;48.296;8.874;2023-04-21T04:34:14;7.50;;;4.97;;
13685;SDS011;6915;48.296;8.874;2023-04-21T04:36:43;8.33;;;5.53;;
13685;SDS011;6915;48.296;8.874;2023-04-21T04:39:14;10.30;;;6.57;;
13685;SDS011;6915;48.296;8.874;2023-04-21T04:41:45;9.43;;;6.27;;
13685;SDS011;6915;48.296;8.874;2023-04-21T04:44:14;6.73;;;5.57;;
13685;SDS011;6915;48.296;8.874;2023-04-21T04:46:42;5.73;;;4.97;;
13685;SDS011;6915;48.296;8.874;2023-04-21T04:49:11;4.83;;;4.33;;
13685;SDS011;6915;48.296;8.874;2023-04-21T04:51:40;7.60;;;4.63;;
13685;SDS011;6915;48.296;8.874;2023-04-21T04:54:09;3.77;;;3.40;;
13685;SDS011;6915;48.296;8.874;2023-04-21T04:56:38;3.73;;;3.23;;
13685;SDS011;6915;48.296;8.874;2023-04-21T04:59:08;3.67;;;3.30;;
13685;SDS011;6915;48.296;8.874;2023-04-21T05:01:37;3.97;;;3.10;;
13685;SDS011;6915;48.296;8.874;2023-04-21T05:04:06;4.57;;;3.37;;
13685;SDS011;6915;48.296;8.874;2023-04-21T05:06:35;3.30;;;3.00;;
13685;SDS011;6915;48.296;8.874;2023-04-21T05:09:04;3.30;;;3.00;;
13685;SDS011;6915;48.296;8.874;2023-04-21T05:11:34;5.03;;;4.20;;
13685;SDS011;6915;48.296;8.874;2023-04-21T05:14:03;5.77;;;4.90;;
13685;SDS011;6915;48.296;8.874;2023-04-21T05:16:34;5.63;;;4.60;;
13685;SDS011;6915;48.296;8.874;2023-04-21T05:19:02;4.70;;;4.20;;
13685;SDS011;6915;48.296;8.874;2023-04-21T05:21:31;5.07;;;4.57;;
13685;SDS011;6915;48.296;8.874;2023-04-21T05:24:00;7.90;;;5.20;;
13685;SDS011;6915;48.296;8.874;2023-04-21T05:26:28;8.20;;;5.13;;
13685;SDS011;6915;48.296;8.874;2023-04-21T05:28:57;7.77;;;5.30;;
13685;SDS011;6915;48.296;8.874;2023-04-21T05:31:26;7.70;;;5.40;;
13685;SDS011;6915;48.296;8.874;2023-04-21T05:33:56;10.73;;;7.23;;
13685;SDS011;6915;48.296;8.874;2023-04-21T05:36:25;14.67;;;9.00;;
13685;SDS011;6915;48.296;8.874;2023-04-21T05:38:54;15.10;;;9.37;;
13685;SDS011;6915;48.296;8.874;2023-04-21T05:41:23;15.40;;;8.63;;
13685;SDS011;6915;48.296;8.874;2023-04-21T05:43:51;13.80;;;8.90;;
13685;SDS011;6915;48.296;8.874;2023-04-21T05:46:20;16.53;;;8.97;;
13685;SDS011;6915;48.296;8.874;2023-04-21T05:48:48;20.97;;;9.87;;
13685;SDS011;6915;48.296;8.874;2023-04-21T05:51:18;21.77;;;10.03;;
13685;SDS011;6915;48.296;8.874;2023-04-21T05:53:47;25.03;;;9.67;;
13685;SDS011;6915;48.296;8.874;2023-04-21T05:56:16;17.13;;;8.90;;
13685;SDS011;6915;48.296;8.874;2023-04-21T05:58:45;18.10;;;11.53;;
13685;SDS011;6915;48.296;8.874;2023-04-21T06:01:14;14.40;;;9.30;;
13685;SDS011;6915;48.296;8.874;2023-04-21T06:03:42;14.37;;;7.77;;
13685;SDS011;6915;48.296;8.874;2023-04-21T06:06:13;20.73;;;9.20;;
13685;SDS011;6915;48.296;8.874;2023-04-21T06:08:44;23.43;;;7.87;;
13685;SDS011;6915;48.296;8.874;2023-04-21T06:11:13;24.47;;;7.03;;
13685;SDS011;6915;48.296;8.874;2023-04-21T06:13:41;20.13;;;7.00;;
13685;SDS011;6915;48.296;8.874;2023-04-21T06:16:10;26.50;;;7.50;;
13685;SDS011;6915;48.296;8.874;2023-04-21T06:18:38;13.13;;;7.40;;
13685;SDS011;6915;48.296;8.874;2023-04-21T06:21:07;15.97;;;8.17;;
13685;SDS011;6915;48.296;8.874;2023-04-21T06:23:36;53.97;;;10.47;;
13685;SDS011;6915;48.296;8.874;2023-04-21T06:26:06;69.93;;;12.60;;
13685;SDS011;6915;48.296;8.874;2023-04-21T06:28:35;52.00;;;13.33;;
13685;SDS011;6915;48.296;8.874;2023-04-21T06:31:04;53.17;;;11.83;;
13685;SDS011;6915;48.296;8.874;2023-04-21T06:33:34;36.37;;;10.73;;
13685;SDS011;6915;48.296;8.874;2023-04-21T06:36:03;33.00;;;12.10;;
13685;SDS011;6915;48.296;8.874;2023-04-21T06:38:33;70.80;;;13.13;;
13685;SDS011;6915;48.296;8.874;2023-04-21T06:41:04;34.73;;;12.93;;
13685;SDS011;6915;48.296;8.874;2023-04-21T06:43:32;23.57;;;13.07;;
13685;SDS011;6915;48.296;8.874;2023-04-21T06:46:02;22.87;;;13.50;;
13685;SDS011;6915;48.296;8.874;2023-04-21T06:48:30;21.77;;;12.50;;
13685;SDS011;6915;48.296;8.874;2023-04-21T06:50:59;25.53;;;13.87;;
13685;SDS011;6915;48.296;8.874;2023-04-21T06:53:28;20.00;;;11.23;;
13685;SDS011;6915;48.296;8.874;2023-04-21T06:55:56;17.33;;;11.93;;
13685;SDS011;6915;48.296;8.874;2023-04-21T06:58:27;25.17;;;13.23;;
13685;SDS011;6915;48.296;8.874;2023-04-21T07:00:55;30.17;;;14.37;;
13685;SDS011;6915;48.296;8.874;2023-04-21T07:03:24;34.67;;;10.77;;
13685;SDS011;6915;48.296;8.874;2023-04-21T07:05:53;15.83;;;8.70;;
13685;SDS011;6915;48.296;8.874;2023-04-21T07:08:21;12.13;;;8.00;;
13685;SDS011;6915;48.296;8.874;2023-04-21T07:10:50;21.93;;;9.50;;
13685;SDS011;6915;48.296;8.874;2023-04-21T07:13:18;14.23;;;9.03;;
13685;SDS011;6915;48.296;8.874;2023-04-21T07:15:48;14.73;;;9.80;;
13685;SDS011;6915;48.296;8.874;2023-04-21T07:18:17;12.07;;;8.67;;
13685;SDS011;6915;48.296;8.874;2023-04-21T07:20:46;10.07;;;7.47;;
13685;SDS011;6915;48.296;8.874;2023-04-21T07:23:15;8.23;;;6.60;;
13685;SDS011;6915;48.296;8.874;2023-04-21T07:25:43;8.97;;;7.27;;
13685;SDS011;6915;48.296;8.874;2023-04-21T07:28:12;9.03;;;7.37;;
13685;SDS011;6915;48.296;8.874;2023-04-21T07:30:41;7.03;;;6.33;;
13685;SDS011;6915;48.296;8.874;2023-04-21T07:33:11;6.53;;;5.93;;
13685;SDS011;6915;48.296;8.874;2023-04-21T07:35:52;7.30;;;6.60;;
13685;SDS011;6915;48.296;8.874;2023-04-21T07:38:20;6.83;;;6.13;;
13685;SDS011;6915;48.296;8.874;2023-04-21T07:40:50;6.63;;;5.90;;
13685;SDS011;6915;48.296;8.874;2023-04-21T07:43:20;8.17;;;6.60;;
13685;SDS011;6915;48.296;8.874;2023-04-21T07:45:50;6.53;;;5.93;;
13685;SDS011;6915;48.296;8.874;2023-04-21T07:48:20;8.13;;;6.53;;
13685;SDS011;6915;48.296;8.874;2023-04-21T07:50:49;7.17;;;6.57;;
13685;SDS011;6915;48.296;8.874;2023-04-21T07:53:18;7.53;;;6.70;;
13685;SDS011;6915;48.296;8.874;2023-04-21T07:55:47;8.13;;;6.10;;
13685;SDS011;6915;48.296;8.874;2023-04-21T07:58:15;7.47;;;6.77;;
13685;SDS011;6915;48.296;8.874;2023-04-21T08:00:44;6.17;;;5.57;;
13685;SDS011;6915;48.296;8.874;2023-04-21T08:03:12;7.53;;;6.83;;
13685;SDS011;6915;48.296;8.874;2023-04-21T08:05:42;6.87;;;6.23;;
13685;SDS011;6915;48.296;8.874;2023-04-21T08:08:11;7.13;;;6.43;;
13685;SDS011;6915;48.296;8.874;2023-04-21T08:10:44;7.53;;;6.73;;
13685;SDS011;6915;48.296;8.874;2023-04-21T08:13:12;7.70;;;6.97;;
13685;SDS011;6915;48.296;8.874;2023-04-21T08:15:41;7.90;;;7.20;;
13685;SDS011;6915;48.296;8.874;2023-04-21T08:18:10;6.43;;;5.83;;
13685;SDS011;6915;48.296;8.874;2023-04-21T08:20:41;6.93;;;6.30;;
13685;SDS011;6915;48.296;8.874;2023-04-21T08:23:09;7.37;;;5.93;;
13685;SDS011;6915;48.296;8.874;2023-04-21T08:25:38;7.20;;;6.50;;
13685;SDS011;6915;48.296;8.874;2023-04-21T08:30:41;8.43;;;7.63;;
13685;SDS011;6915;48.296;8.874;2023-04-21T08:33:10;8.37;;;7.50;;
13685;SDS011;6915;48.296;8.874;2023-04-21T08:35:40;10.67;;;9.10;;
13685;SDS011;6915;48.296;8.874;2023-04-21T08:38:09;8.80;;;7.43;;
13685;SDS011;6915;48.296;8.874;2023-04-21T08:40:37;7.93;;;6.90;;
13685;SDS011;6915;48.296;8.874;2023-04-21T08:43:06;7.70;;;6.93;;
13685;SDS011;6915;48.296;8.874;2023-04-21T08:45:35;7.20;;;6.50;;
13685;SDS011;6915;48.296;8.874;2023-04-21T08:48:04;7.70;;;6.87;;
13685;SDS011;6915;48.296;8.874;2023-04-21T08:50:40;7.20;;;6.50;;
13685;SDS011;6915;48.296;8.874;2023-04-21T08:53:11;7.37;;;6.67;;
13685;SDS011;6915;48.296;8.874;2023-04-21T08:55:41;7.07;;;6.37;;
13685;SDS011;6915;48.296;8.874;2023-04-21T08:58:10;6.73;;;6.03;;
13685;SDS011;6915;48.296;8.874;2023-04-21T09:00:39;7.80;;;7.00;;
13685;SDS011;6915;48.296;8.874;2023-04-21T09:03:07;7.97;;;6.60;;
13685;SDS011;6915;48.296;8.874;2023-04-21T09:05:38;6.37;;;5.87;;
13685;SDS011;6915;48.296;8.874;2023-04-21T09:08:08;7.17;;;6.47;;
13685;SDS011;6915;48.296;8.874;2023-04-21T09:10:42;7.83;;;6.77;;
13685;SDS011;6915;48.296;8.874;2023-04-21T09:13:13;8.47;;;7.57;;
13685;SDS011;6915;48.296;8.874;2023-04-21T09:15:49;22.07;;;14.23;;
13685;SDS011;6915;48.296;8.874;2023-04-21T09:18:19;8.07;;;7.27;;
13685;SDS011;6915;48.296;8.874;2023-04-21T09:20:49;8.00;;;7.20;;
13685;SDS011;6915;48.296;8.874;2023-04-21T09:23:31;7.73;;;6.97;;
13685;SDS011;6915;48.296;8.874;2023-04-21T09:26:06;7.37;;;6.67;;
13685;SDS011;6915;48.296;8.874;2023-04-21T09:28:35;8.13;;;7.33;;
13685;SDS011;6915;48.296;8.874;2023-04-21T09:31:05;7.13;;;6.50;;
13685;SDS011;6915;48.296;8.874;2023-04-21T09:33:45;7.63;;;6.90;;
13685;SDS011;6915;48.296;8.874;2023-04-21T09:36:19;7.47;;;6.63;;
13685;SDS011;6915;48.296;8.874;2023-04-21T09:38:50;7.10;;;6.40;;
13685;SDS011;6915;48.296;8.874;2023-04-21T09:41:23;7.40;;;6.70;;
13685;SDS011;6915;48.296;8.874;2023-04-21T09:43:52;9.07;;;6.87;;
13685;SDS011;6915;48.296;8.874;2023-04-21T09:46:26;7.80;;;7.00;;
13685;SDS011;6915;48.296;8.874;2023-04-21T09:48:58;7.67;;;6.97;;
13685;SDS011;6915;48.296;8.874;2023-04-21T09:51:29;7.40;;;6.80;;
13685;SDS011;6915;48.296;8.874;2023-04-21T09:54:00;6.77;;;6.17;;
13685;SDS011;6915;48.296;8.874;2023-04-21T09:56:35;6.73;;;6.13;;
13685;SDS011;6915;48.296;8.874;2023-04-21T09:59:09;6.77;;;6.10;;
13685;SDS011;6915;48.296;8.874;2023-04-21T10:01:42;7.50;;;6.80;;
13685;SDS011;6915;48.296;8.874;2023-04-21T10:04:13;7.07;;;6.47;;
13685;SDS011;6915;48.296;8.874;2023-04-21T10:06:43;6.20;;;5.70;;
13685;SDS011;6915;48.296;8.874;2023-04-21T10:09:14;6.87;;;6.27;;
13685;SDS011;6915;48.296;8.874;2023-04-21T10:11:43;6.27;;;5.63;;
13685;SDS011;6915;48.296;8.874;2023-04-21T10:14:13;6.37;;;5.80;;
13685;SDS011;6915;48.296;8.874;2023-04-21T10:16:42;6.50;;;5.90;;
13685;SDS011;6915;48.296;8.874;2023-04-21T10:19:22;7.07;;;6.23;;
13685;SDS011;6915;48.296;8.874;2023-04-21T10:21:53;6.27;;;5.63;;
13685;SDS011;6915;48.296;8.874;2023-04-21T10:24:24;5.83;;;5.33;;
13685;SDS011;6915;48.296;8.874;2023-04-21T10:26:56;7.00;;;6.30;;
13685;SDS011;6915;48.296;8.874;2023-04-21T10:29:29;6.97;;;5.57;;
13685;SDS011;6915;48.296;8.874;2023-04-21T10:32:02;6.60;;;6.00;;
13685;SDS011;6915;48.296;8.874;2023-04-21T10:34:35;5.87;;;5.33;;
13685;SDS011;6915;48.296;8.874;2023-04-21T10:37:09;5.97;;;5.33;;
13685;SDS011;6915;48.296;8.874;2023-04-21T10:42:32;6.03;;;5.30;;
13685;SDS011;6915;48.296;8.874;2023-04-21T10:45:09;6.23;;;5.23;;
13685;SDS011;6915;48.296;8.874;2023-04-21T10:47:39;5.87;;;5.37;;
13685;SDS011;6915;48.296;8.874;2023-04-21T10:50:20;5.77;;;5.27;;
13685;SDS011;6915;48.296;8.874;2023-04-21T10:52:51;6.03;;;5.53;;
13685;SDS011;6915;48.296;8.874;2023-04-21T10:55:23;6.20;;;5.70;;
13685;SDS011;6915;48.296;8.874;2023-04-21T10:57:54;5.90;;;5.20;;
13685;SDS011;6915;48.296;8.874;2023-04-21T11:00:26;5.30;;;4.90;;
13685;SDS011;6915;48.296;8.874;2023-04-21T11:02:56;5.57;;;5.17;;
13685;SDS011;6915;48.296;8.874;2023-04-21T11:05:32;5.13;;;4.70;;
13685;SDS011;6915;48.296;8.874;2023-04-21T11:08:18;5.43;;;4.97;;
13685;SDS011;6915;48.296;8.874;2023-04-21T11:10:56;4.90;;;4.50;;
13685;SDS011;6915;48.296;8.874;2023-04-21T11:13:25;5.20;;;4.70;;
13685;SDS011;6915;48.296;8.874;2023-04-21T11:16:01;5.30;;;4.80;;
13685;SDS011;6915;48.296;8.874;2023-04-21T11:18:40;4.73;;;4.33;;
13685;SDS011;6915;48.296;8.874;2023-04-21T11:21:11;4.90;;;4.50;;
13685;SDS011;6915;48.296;8.874;2023-04-21T11:23:46;5.23;;;4.73;;
13685;SDS011;6915;48.296;8.874;2023-04-21T11:26:16;4.90;;;4.30;;
13685;SDS011;6915;48.296;8.874;2023-04-21T11:28:54;4.50;;;4.20;;
13685;SDS011;6915;48.296;8.874;2023-04-21T11:31:26;4.87;;;4.47;;
13685;SDS011;6915;48.296;8.874;2023-04-21T11:33:56;4.50;;;4.03;;
13685;SDS011;6915;48.296;8.874;2023-04-21T11:36:26;4.73;;;4.33;;
13685;SDS011;6915;48.296;8.874;2023-04-21T11:38:55;4.23;;;3.90;;
13685;SDS011;6915;48.296;8.874;2023-04-21T11:41:27;5.63;;;4.70;;
13685;SDS011;6915;48.296;8.874;2023-04-21T11:43:56;4.77;;;4.40;;
13685;SDS011;6915;48.296;8.874;2023-04-21T11:46:26;5.57;;;4.17;;
13685;SDS011;6915;48.296;8.874;2023-04-21T11:48:59;4.60;;;4.20;;
13685;SDS011;6915;48.296;8.874;2023-04-21T11:51:32;4.40;;;4.07;;
13685;SDS011;6915;48.296;8.874;2023-04-21T11:54:03;4.70;;;4.30;;
13685;SDS011;6915;48.296;8.874;2023-04-21T11:56:38;4.53;;;4.00;;
13685;SDS011;6915;48.296;8.874;2023-04-21T11:59:10;3.77;;;3.50;;
13685;SDS011;6915;48.296;8.874;2023-04-21T12:01:42;3.60;;;3.20;;
13685;SDS011;6915;48.296;8.874;2023-04-21T12:04:14;3.70;;;3.40;;
13685;SDS011;6915;48.296;8.874;2023-04-21T12:06:44;3.00;;;2.80;;
13685;SDS011;6915;48.296;8.874;2023-04-21T12:09:22;4.97;;;3.00;;
13685;SDS011;6915;48.296;8.874;2023-04-21T12:11:53;3.03;;;2.83;;
13685;SDS011;6915;48.296;8.874;2023-04-21T12:14:24;4.30;;;3.10;;
13685;SDS011;6915;48.296;8.874;2023-04-21T12:16:53;2.93;;;2.73;;
13685;SDS011;6915;48.296;8.874;2023-04-21T12:19:23;3.57;;;2.93;;
13685;SDS011;6915;48.296;8.874;2023-04-21T12:22:00;3.40;;;3.20;;
13685;SDS011;6915;48.296;8.874;2023-04-21T12:24:32;3.10;;;2.90;;
13685;SDS011;6915;48.296;8.874;2023-04-21T12:27:02;3.20;;;2.90;;
13685;SDS011;6915;48.296;8.874;2023-04-21T12:29:31;2.93;;;2.73;;
13685;SDS011;6915;48.296;8.874;2023-04-21T12:32:01;2.77;;;2.57;;
13685;SDS011;6915;48.296;8.874;2023-04-21T12:34:30;3.90;;;3.10;;
13685;SDS011;6915;48.296;8.874;2023-04-21T12:36:59;3.20;;;3.00;;
13685;SDS011;6915;48.296;8.874;2023-04-21T12:39:27;2.90;;;2.70;;
13685;SDS011;6915;48.296;8.874;2023-04-21T12:41:56;2.57;;;2.43;;
13685;SDS011;6915;48.296;8.874;2023-04-21T12:44:28;2.90;;;2.70;;
13685;SDS011;6915;48.296;8.874;2023-04-21T12:46:56;2.67;;;2.47;;
13685;SDS011;6915;48.296;8.874;2023-04-21T12:49:25;2.90;;;2.30;;
13685;SDS011;6915;48.296;8.874;2023-04-21T12:51:54;2.20;;;2.10;;
13685;SDS011;6915;48.296;8.874;2023-04-21T12:54:22;1.80;;;1.70;;
13685;SDS011;6915;48.296;8.874;2023-04-21T12:56:51;1.98;;;1.77;;
13685;SDS011;6915;48.296;8.874;2023-04-21T12:59:22;1.70;;;1.60;;
13685;SDS011;6915;48.296;8.874;2023-04-21T14:01:36;0.40;;;0.40;;
13685;SDS011;6915;48.296;8.874;2023-04-21T14:04:05;0.80;;;0.40;;
13685;SDS011;6915;48.296;8.874;2023-04-21T14:06:34;1.88;;;0.40;;
13685;SDS011;6915;48.296;8.874;2023-04-21T14:09:03;0.20;;;0.20;;
13685;SDS011;6915;48.296;8.874;2023-04-21T15:44:08;0.35;;;0.22;;
13685;SDS011;6915;48.296;8.874;2023-04-21T15:46:39;0.20;;;0.20;;
13685;SDS011;6915;48.296;8.874;2023-04-21T15:49:10;0.53;;;0.40;;
13685;SDS011;6915;48.296;8.874;2023-04-21T15:51:39;3.22;;;0.40;;
13685;SDS011;6915;48.296;8.874;2023-04-21T16:04:29;0.33;;;0.33;;
13685;SDS011;6915;48.296;8.874;2023-04-21T16:06:58;0.90;;;0.40;;
13685;SDS011;6915;48.296;8.874;2023-04-21T16:09:26;4.17;;;0.53;;
13685;SDS011;6915;48.296;8.874;2023-04-21T16:11:57;1.70;;;0.60;;
13685;SDS011;6915;48.296;8.874;2023-04-21T16:14:32;0.65;;;0.50;;
13685;SDS011;6915;48.296;8.874;2023-04-21T16:17:04;1.13;;;0.60;;
13685;SDS011;6915;48.296;8.874;2023-04-21T16:19:34;0.50;;;0.50;;
13685;SDS011;6915;48.296;8.874;2023-04-21T16:22:06;0.50;;;0.50;;
13685;SDS011;6915;48.296;8.874;2023-04-21T16:24:37;0.57;;;0.57;;
13685;SDS011;6915;48.296;8.874;2023-04-21T16:27:06;1.00;;;1.00;;
13685;SDS011;6915;48.296;8.874;2023-04-21T16:29:34;0.90;;;0.90;;
13685;SDS011;6915;48.296;8.874;2023-04-21T16:32:05;0.93;;;0.70;;
13685;SDS011;6915;48.296;8.874;2023-04-21T16:34:35;0.93;;;0.60;;
13685;SDS011;6915;48.296;8.874;2023-04-21T16:37:04;1.00;;;0.80;;
13685;SDS011;6915;48.296;8.874;2023-04-21T16:39:32;0.67;;;0.67;;
13685;SDS011;6915;48.296;8.874;2023-04-21T16:42:01;0.73;;;0.70;;
13685;SDS011;6915;48.296;8.874;2023-04-21T16:44:29;1.17;;;1.00;;
13685;SDS011;6915;48.296;8.874;2023-04-21T16:47:00;1.13;;;0.87;;
13685;SDS011;6915;48.296;8.874;2023-04-21T16:49:30;1.13;;;1.07;;
13685;SDS011;6915;48.296;8.874;2023-04-21T16:52:01;0.90;;;0.90;;
13685;SDS011;6915;48.296;8.874;2023-04-21T16:54:29;0.90;;;0.90;;
13685;SDS011;6915;48.296;8.874;2023-04-21T16:56:58;1.87;;;1.10;;
13685;SDS011;6915;48.296;8.874;2023-04-21T16:59:27;1.50;;;0.97;;
13685;SDS011;6915;48.296;8.874;2023-04-21T17:01:55;1.00;;;1.00;;
13685;SDS011;6915;48.296;8.874;2023-04-21T17:04:24;0.97;;;0.90;;
13685;SDS011;6915;48.296;8.874;2023-04-21T17:06:53;1.97;;;1.70;;
13685;SDS011;6915;48.296;8.874;2023-04-21T17:09:23;1.40;;;1.00;;
13685;SDS011;6915;48.296;8.874;2023-04-21T17:11:53;2.30;;;1.23;;
13685;SDS011;6915;48.296;8.874;2023-04-21T17:14:24;1.87;;;1.10;;
13685;SDS011;6915;48.296;8.874;2023-04-21T17:16:55;1.47;;;1.00;;
13685;SDS011;6915;48.296;8.874;2023-04-21T17:19:25;0.90;;;0.90;;
13685;SDS011;6915;48.296;8.874;2023-04-21T17:21:56;0.93;;;0.80;;
13685;SDS011;6915;48.296;8.874;2023-04-21T17:24:26;1.00;;;1.00;;
13685;SDS011;6915;48.296;8.874;2023-04-21T17:26:55;1.10;;;1.00;;
13685;SDS011;6915;48.296;8.874;2023-04-21T17:29:36;1.40;;;0.93;;
13685;SDS011;6915;48.296;8.874;2023-04-21T17:32:06;1.10;;;1.00;;
13685;SDS011;6915;48.296;8.874;2023-04-21T17:34:35;1.40;;;1.33;;
13685;SDS011;6915;48.296;8.874;2023-04-21T17:37:05;1.40;;;1.30;;
13685;SDS011;6915;48.296;8.874;2023-04-21T17:39:35;2.27;;;1.47;;
13685;SDS011;6915;48.296;8.874;2023-04-21T17:42:06;1.50;;;1.40;;
13685;SDS011;6915;48.296;8.874;2023-04-21T17:44:35;1.40;;;1.30;;
13685;SDS011;6915;48.296;8.874;2023-04-21T17:47:04;2.30;;;1.30;;
13685;SDS011;6915;48.296;8.874;2023-04-21T17:49:35;1.00;;;1.00;;
13685;SDS011;6915;48.296;8.874;2023-04-21T17:52:06;1.47;;;1.00;;
13685;SDS011;6915;48.296;8.874;2023-04-21T17:54:36;1.10;;;1.00;;
13685;SDS011;6915;48.296;8.874;2023-04-21T17:57:05;3.27;;;0.87;;
13685;SDS011;6915;48.296;8.874;2023-04-21T17:59:36;1.60;;;1.10;;
13685;SDS011;6915;48.296;8.874;2023-04-21T18:02:04;1.20;;;1.10;;
13685;SDS011;6915;48.296;8.874;2023-04-21T18:04:32;1.63;;;1.10;;